createdAt,value
2022-11-29T00:01:33.874Z,10.30
2022-11-29T00:04:01.178Z,11.05
2022-11-29T00:06:31.030Z,10.40
2022-11-29T00:09:00.558Z,10.02
2022-11-29T00:11:48.478Z,10.03
2022-11-29T00:14:18.409Z,10.48
2022-11-29T00:16:45.881Z,9.48
2022-11-29T00:19:13.206Z,9.65
2022-11-29T00:21:40.038Z,9.85
2022-11-29T00:24:07.281Z,9.82
2022-11-29T00:26:34.103Z,9.93
2022-11-29T00:29:00.785Z,9.13
2022-11-29T00:31:31.126Z,9.35
2022-11-29T00:36:26.114Z,8.68
2022-11-29T00:38:53.045Z,8.07
2022-11-29T00:41:20.309Z,8.98
2022-11-29T00:43:47.522Z,9.38
2022-11-29T00:46:14.317Z,9.48
2022-11-29T00:48:41.145Z,9.70
2022-11-29T00:51:08.216Z,9.68
2022-11-29T00:53:36.011Z,10.02
2022-11-29T00:56:03.739Z,9.80
2022-11-29T00:58:30.674Z,8.50
2022-11-29T01:00:57.698Z,8.50
2022-11-29T01:03:24.702Z,8.20
2022-11-29T01:05:52.234Z,7.82
2022-11-29T01:08:19.181Z,7.53
2022-11-29T01:10:46.001Z,7.55
2022-11-29T01:13:12.703Z,7.82
2022-11-29T01:15:39.506Z,8.10
2022-11-29T01:18:06.236Z,8.50
2022-11-29T01:20:33.224Z,7.68
2022-11-29T01:22:59.977Z,7.63
2022-11-29T01:25:27.110Z,7.57
2022-11-29T01:27:54.459Z,8.45
2022-11-29T01:30:21.402Z,8.05
2022-11-29T01:32:48.187Z,7.82
2022-11-29T01:35:14.927Z,7.07
2022-11-29T01:37:41.673Z,7.25
2022-11-29T01:40:08.846Z,7.20
2022-11-29T01:42:35.563Z,6.82
2022-11-29T01:45:13.402Z,6.57
2022-11-29T01:47:45.342Z,6.20
2022-11-29T01:50:12.223Z,6.97
2022-11-29T01:52:39.602Z,6.85
2022-11-29T01:55:09.122Z,7.03
2022-11-29T01:57:38.580Z,7.57
2022-11-29T02:00:12.652Z,7.53
2022-11-29T02:02:44.639Z,6.72
2022-11-29T02:05:14.492Z,6.70
2022-11-29T02:07:45.765Z,6.70
2022-11-29T02:10:13.630Z,7.18
2022-11-29T02:13:11.147Z,7.50
2022-11-29T02:16:11.832Z,6.68
2022-11-29T02:18:50.442Z,7.47
2022-11-29T02:21:49.392Z,7.00
2022-11-29T02:24:42.570Z,6.50
2022-11-29T02:27:35.873Z,7.18
2022-11-29T02:30:30.420Z,7.38
2022-11-29T02:33:21.958Z,8.18
2022-11-29T02:36:23.790Z,7.88
2022-11-29T02:39:13.790Z,9.15
2022-11-29T02:42:17.730Z,8.25
2022-11-29T02:45:14.455Z,7.28
2022-11-29T02:47:52.194Z,7.35
2022-11-29T02:50:23.878Z,7.72
2022-11-29T02:53:22.536Z,8.25
2022-11-29T02:55:52.287Z,8.70
2022-11-29T02:58:41.859Z,8.40
2022-11-29T03:01:18.406Z,7.90
2022-11-29T03:03:55.302Z,7.93
2022-11-29T03:06:36.586Z,8.02
2022-11-29T03:11:49.237Z,7.50
2022-11-29T03:14:26.741Z,8.23
2022-11-29T03:17:30.902Z,7.40
2022-11-29T03:20:11.814Z,7.45
2022-11-29T03:22:46.339Z,7.70
2022-11-29T03:25:23.134Z,8.40
2022-11-29T03:28:05.607Z,7.97
2022-11-29T03:30:36.970Z,7.80
2022-11-29T03:33:16.858Z,8.15
2022-11-29T03:36:09.290Z,7.00
2022-11-29T03:38:45.538Z,7.43
2022-11-29T03:41:29.497Z,6.93
2022-11-29T03:44:20.288Z,7.88
2022-11-29T03:47:10.197Z,7.20
2022-11-29T03:49:54.947Z,7.40
2022-11-29T03:52:32.793Z,6.90
2022-11-29T03:55:08.344Z,7.15
2022-11-29T03:57:58.023Z,6.22
2022-11-29T04:00:25.166Z,6.53
2022-11-29T04:03:00.926Z,7.03
2022-11-29T04:06:00.458Z,6.93
2022-11-29T04:08:55.094Z,7.13
2022-11-29T04:11:54.851Z,6.63
2022-11-29T04:14:44.017Z,7.35
2022-11-29T04:17:35.086Z,6.82
2022-11-29T04:20:51.467Z,6.65
2022-11-29T04:23:55.713Z,6.13
2022-11-29T04:26:41.234Z,6.57
2022-11-29T04:29:30.734Z,5.97
2022-11-29T04:32:00.262Z,5.83
2022-11-29T04:34:38.672Z,5.90
2022-11-29T04:37:14.233Z,5.55
2022-11-29T04:39:49.895Z,6.10
2022-11-29T04:42:37.799Z,5.97
2022-11-29T04:45:35.567Z,6.03
2022-11-29T04:48:42.768Z,6.00
2022-11-29T04:51:31.824Z,5.43
2022-11-29T04:54:19.526Z,5.30
2022-11-29T04:56:50.887Z,5.45
2022-11-29T04:59:30.414Z,4.90
2022-11-29T05:02:26.485Z,4.53
2022-11-29T05:05:21.933Z,4.65
2022-11-29T05:08:03.942Z,4.88
2022-11-29T05:11:08.174Z,4.65
2022-11-29T05:13:40.234Z,4.53
2022-11-29T05:16:35.897Z,5.00
2022-11-29T05:19:21.322Z,4.90
2022-11-29T05:22:12.989Z,4.75
2022-11-29T05:25:12.203Z,4.47
2022-11-29T05:28:10.019Z,4.60
2022-11-29T05:30:55.912Z,4.10
2022-11-29T05:33:51.501Z,4.18
2022-11-29T05:36:30.246Z,4.22
2022-11-29T05:39:12.023Z,4.47
2022-11-29T05:42:04.800Z,4.10
2022-11-29T05:44:56.726Z,4.00
2022-11-29T05:47:46.679Z,4.05
2022-11-29T05:50:24.766Z,3.70
2022-11-29T05:53:00.182Z,3.65
2022-11-29T05:55:37.340Z,3.83
2022-11-29T05:58:12.172Z,3.92
2022-11-29T06:01:01.339Z,3.55
2022-11-29T06:04:03.078Z,3.58
2022-11-29T06:06:51.986Z,3.58
2022-11-29T06:09:27.891Z,3.58
2022-11-29T06:12:07.029Z,3.90
2022-11-29T06:15:00.310Z,3.35
2022-11-29T06:18:00.431Z,3.90
2022-11-29T06:20:55.111Z,3.17
2022-11-29T06:23:57.449Z,3.42
2022-11-29T06:26:47.142Z,3.42
2022-11-29T06:29:37.318Z,2.70
2022-11-29T06:32:26.980Z,3.20
2022-11-29T06:35:08.544Z,2.90
2022-11-29T06:37:50.328Z,3.38
2022-11-29T06:40:17.393Z,3.50
2022-11-29T06:42:44.443Z,3.35
2022-11-29T06:45:13.816Z,3.22
2022-11-29T06:48:01.577Z,3.20
2022-11-29T06:50:46.362Z,3.30
2022-11-29T06:53:22.179Z,3.20
2022-11-29T06:56:06.927Z,3.30
2022-11-29T06:59:11.202Z,3.97
2022-11-29T07:01:45.700Z,3.90
2022-11-29T07:04:46.266Z,4.18
2022-11-29T07:07:17.915Z,4.13
2022-11-29T07:09:46.925Z,4.05
2022-11-29T07:12:14.187Z,3.67
2022-11-29T07:14:41.348Z,4.70
2022-11-29T07:17:14.822Z,4.22
2022-11-29T07:20:14.386Z,3.90
2022-11-29T07:22:50.083Z,4.53
2022-11-29T07:25:34.842Z,4.30
2022-11-29T07:28:09.954Z,3.95
2022-11-29T07:31:21.293Z,3.97
2022-11-29T07:34:02.886Z,3.55
2022-11-29T07:36:50.013Z,3.60
2022-11-29T07:39:19.667Z,3.60
2022-11-29T07:41:54.354Z,3.38
2022-11-29T07:44:21.261Z,3.70
2022-11-29T07:46:47.978Z,3.78
2022-11-29T07:49:14.816Z,3.63
2022-11-29T07:51:41.640Z,3.38
2022-11-29T07:54:11.333Z,3.47
2022-11-29T07:56:38.087Z,3.10
2022-11-29T07:59:04.896Z,3.13
2022-11-29T08:01:31.658Z,3.00
2022-11-29T08:03:58.403Z,2.97
2022-11-29T08:06:26.225Z,3.33
2022-11-29T08:08:53.055Z,3.17
2022-11-29T08:11:19.750Z,3.10
2022-11-29T08:13:46.466Z,3.08
2022-11-29T08:16:19.469Z,2.80
2022-11-29T08:18:46.218Z,2.75
2022-11-29T08:21:17.912Z,2.85
2022-11-29T08:23:49.074Z,2.60
2022-11-29T08:26:17.659Z,3.05
2022-11-29T08:28:44.787Z,2.80
2022-11-29T08:31:13.307Z,3.10
2022-11-29T08:33:42.647Z,2.70
2022-11-29T08:36:12.835Z,2.80
2022-11-29T08:38:39.794Z,2.78
2022-11-29T08:41:09.208Z,2.88
2022-11-29T08:43:36.091Z,2.70
2022-11-29T08:46:03.109Z,3.10
2022-11-29T08:48:29.911Z,2.80
2022-11-29T08:50:57.107Z,2.88
2022-11-29T08:53:42.344Z,2.63
2022-11-29T08:56:49.339Z,2.40
2022-11-29T08:58:57.479Z,2.70
2022-11-29T09:01:24.257Z,2.75
2022-11-29T09:04:00.010Z,2.83
2022-11-29T09:06:29.462Z,2.92
2022-11-29T09:08:57.465Z,3.07
2022-11-29T09:11:30.310Z,3.60
2022-11-29T09:14:01.501Z,3.60
2022-11-29T09:16:33.002Z,3.30
2022-11-29T09:19:03.095Z,3.10
2022-11-29T09:21:33.909Z,3.90
2022-11-29T09:24:06.884Z,3.10
2022-11-29T09:26:39.533Z,4.00
2022-11-29T09:29:08.191Z,3.65
2022-11-29T09:31:38.025Z,3.65
2022-11-29T09:34:07.073Z,3.53
2022-11-29T09:36:35.605Z,3.15
2022-11-29T09:39:06.127Z,2.83
2022-11-29T09:41:59.634Z,2.85
2022-11-29T09:44:47.265Z,3.00
2022-11-29T09:47:33.758Z,3.08
2022-11-29T09:50:20.791Z,3.10
2022-11-29T09:53:01.261Z,3.20
2022-11-29T09:55:34.661Z,3.00
2022-11-29T09:58:04.888Z,2.97
2022-11-29T10:00:38.517Z,3.13
2022-11-29T10:03:29.836Z,3.00
2022-11-29T10:06:05.100Z,2.70
2022-11-29T10:08:49.274Z,2.80
2022-11-29T10:11:28.625Z,2.90
2022-11-29T10:14:07.907Z,2.90
2022-11-29T10:16:41.761Z,3.05
2022-11-29T10:19:35.902Z,3.50
2022-11-29T10:22:10.366Z,3.10
2022-11-29T10:24:44.049Z,3.05
2022-11-29T10:27:25.007Z,3.00
2022-11-29T10:30:00.964Z,2.83
2022-11-29T10:32:37.223Z,2.42
2022-11-29T10:35:17.118Z,2.53
2022-11-29T10:38:28.621Z,2.25
2022-11-29T10:40:44.147Z,2.10
2022-11-29T10:43:12.391Z,2.25
2022-11-29T10:45:52.174Z,2.60
2022-11-29T10:48:22.880Z,2.55
2022-11-29T10:50:57.265Z,2.60
2022-11-29T10:53:40.072Z,2.78
2022-11-29T10:56:22.596Z,2.72
2022-11-29T10:59:00.748Z,2.80
2022-11-29T11:01:30.658Z,2.40
2022-11-29T11:04:01.090Z,2.10
2022-11-29T11:06:42.518Z,2.10
2022-11-29T11:09:33.957Z,2.10
2022-11-29T11:12:23.632Z,2.70
2022-11-29T11:14:56.330Z,2.33
2022-11-29T11:17:34.938Z,2.70
2022-11-29T11:20:25.207Z,2.30
2022-11-29T11:25:36.955Z,2.50
2022-11-29T11:28:24.964Z,2.53
2022-11-29T11:31:05.696Z,2.40
2022-11-29T11:33:38.318Z,2.72
2022-11-29T11:36:21.016Z,2.60
2022-11-29T11:39:02.400Z,2.25
2022-11-29T11:41:51.294Z,2.38
2022-11-29T11:44:47.780Z,2.80
2022-11-29T11:47:39.332Z,2.33
2022-11-29T11:50:22.199Z,2.55
2022-11-29T11:52:54.154Z,2.38
2022-11-29T11:55:22.800Z,2.22
2022-11-29T11:58:10.657Z,2.30
2022-11-29T12:01:03.406Z,2.42
2022-11-29T12:03:56.156Z,1.90
2022-11-29T12:07:01.935Z,2.58
2022-11-29T12:09:53.093Z,2.15
2022-11-29T12:12:31.811Z,2.20
2022-11-29T12:15:21.117Z,1.88
2022-11-29T12:18:04.586Z,1.90
2022-11-29T12:20:42.006Z,2.17
2022-11-29T12:23:26.991Z,1.90
2022-11-29T12:26:04.333Z,2.15
2022-11-29T12:28:44.285Z,2.42
2022-11-29T12:31:46.692Z,2.45
2022-11-29T12:34:38.714Z,2.60
2022-11-29T12:37:39.115Z,2.75
2022-11-29T12:40:18.849Z,2.63
2022-11-29T12:43:02.480Z,2.78
2022-11-29T12:45:35.112Z,2.90
2022-11-29T12:48:51.377Z,2.35
2022-11-29T12:51:51.353Z,2.33
2022-11-29T12:54:33.711Z,2.40
2022-11-29T12:57:19.853Z,2.40
2022-11-29T12:59:58.347Z,2.58
2022-11-29T13:03:20.462Z,1.80
2022-11-29T13:06:03.637Z,1.50
2022-11-29T13:08:45.150Z,1.40
2022-11-29T13:11:26.147Z,1.50
2022-11-29T13:14:41.128Z,1.70
2022-11-29T13:17:02.127Z,1.30
2022-11-29T13:20:06.449Z,1.60
2022-11-29T13:23:11.944Z,1.50
2022-11-29T13:25:53.640Z,1.40
2022-11-29T13:28:33.680Z,1.48
2022-11-29T13:31:27.085Z,1.60
2022-11-29T13:34:34.243Z,1.98
2022-11-29T13:37:17.934Z,1.75
2022-11-29T13:43:21.302Z,1.70
2022-11-29T13:46:05.081Z,1.60
2022-11-29T13:48:52.622Z,1.60
2022-11-29T13:51:39.583Z,1.80
2022-11-29T13:57:14.389Z,1.90
2022-11-29T13:59:57.052Z,2.20
2022-11-29T14:05:29.687Z,1.90
2022-11-29T14:09:10.762Z,1.98
2022-11-29T14:11:44.895Z,1.95
2022-11-29T14:14:39.707Z,2.00
2022-11-29T14:17:32.663Z,2.40
2022-11-29T14:20:45.058Z,2.42
2022-11-29T14:26:28.982Z,2.42
2022-11-29T14:28:59.223Z,2.88
2022-11-29T14:31:52.638Z,2.95
2022-11-29T14:34:29.691Z,2.92
2022-11-29T14:37:19.212Z,3.13
2022-11-29T14:39:53.693Z,4.87
2022-11-29T14:42:24.839Z,4.68
2022-11-29T14:45:05.980Z,6.50
2022-11-29T14:47:39.721Z,6.97
2022-11-29T14:50:09.843Z,7.00
2022-11-29T14:52:59.265Z,7.10
2022-11-29T14:55:27.127Z,7.50
2022-11-29T14:58:03.011Z,8.13
2022-11-29T15:00:36.788Z,8.98
2022-11-29T15:03:17.372Z,9.45
2022-11-29T15:05:58.963Z,10.57
2022-11-29T15:08:41.707Z,10.60
2022-11-29T15:13:46.251Z,11.48
2022-11-29T15:16:25.108Z,11.90
2022-11-29T15:19:01.822Z,12.85
2022-11-29T15:21:43.434Z,12.18
2022-11-29T15:24:15.771Z,12.43
2022-11-29T15:27:02.633Z,12.57
2022-11-29T15:29:31.322Z,12.38
2022-11-29T15:32:00.593Z,11.82
2022-11-29T15:34:45.030Z,11.35
2022-11-29T15:37:34.383Z,11.48
2022-11-29T15:40:12.413Z,12.23
2022-11-29T15:42:43.898Z,12.52
2022-11-29T15:45:29.867Z,12.05
2022-11-29T15:48:33.414Z,12.93
2022-11-29T15:51:09.091Z,12.30
2022-11-29T15:53:41.686Z,13.50
2022-11-29T15:56:19.994Z,12.48
2022-11-29T15:58:49.765Z,12.60
2022-11-29T16:01:21.585Z,13.25
2022-11-29T16:03:52.120Z,12.82
2022-11-29T16:06:42.029Z,13.25
2022-11-29T16:09:16.696Z,12.93
2022-11-29T16:11:44.480Z,13.15
2022-11-29T16:14:14.424Z,14.02
2022-11-29T16:16:43.956Z,13.48
2022-11-29T16:19:28.523Z,14.75
2022-11-29T16:22:12.907Z,14.48
2022-11-29T16:25:01.255Z,13.30
2022-11-29T16:27:35.065Z,14.00
2022-11-29T16:30:02.729Z,14.75
2022-11-29T16:32:37.861Z,14.07
2022-11-29T16:35:22.298Z,15.05
2022-11-29T16:37:49.318Z,15.07
2022-11-29T16:40:33.288Z,16.52
2022-11-29T16:43:41.763Z,16.83
2022-11-29T16:46:27.710Z,17.38
2022-11-29T16:48:57.092Z,17.13
2022-11-29T16:51:26.394Z,16.90
2022-11-29T16:53:54.346Z,17.30
2022-11-29T16:56:27.725Z,18.08
2022-11-29T16:59:24.576Z,18.40
2022-11-29T17:01:48.370Z,18.95
2022-11-29T17:04:24.117Z,17.75
2022-11-29T17:06:56.139Z,17.88
2022-11-29T17:09:32.434Z,17.83
2022-11-29T17:11:59.945Z,18.58
2022-11-29T17:14:27.991Z,19.30
2022-11-29T17:16:55.606Z,21.20
2022-11-29T17:19:23.838Z,20.10
2022-11-29T17:21:52.667Z,22.58
2022-11-29T17:24:20.820Z,22.63
2022-11-29T17:26:47.643Z,23.73
2022-11-29T17:29:15.666Z,24.38
2022-11-29T17:31:46.737Z,25.42
2022-11-29T17:34:13.492Z,24.40
2022-11-29T17:36:40.574Z,24.48
2022-11-29T17:39:07.521Z,24.33
2022-11-29T17:41:34.870Z,23.33
2022-11-29T17:44:01.649Z,24.20
2022-11-29T17:46:33.405Z,23.77
2022-11-29T17:49:02.585Z,24.15
2022-11-29T17:51:51.259Z,22.95
2022-11-29T17:54:16.022Z,23.50
2022-11-29T17:56:42.697Z,24.25
2022-11-29T17:59:09.554Z,25.27
2022-11-29T18:01:36.835Z,24.60
2022-11-29T18:04:06.151Z,25.30
2022-11-29T18:06:38.432Z,24.48
2022-11-29T18:09:07.493Z,24.27
2022-11-29T18:11:46.409Z,24.92
2022-11-29T18:14:17.255Z,23.65
2022-11-29T18:16:45.411Z,26.50
2022-11-29T18:19:14.873Z,26.05
2022-11-29T18:21:41.874Z,25.15
2022-11-29T18:24:09.535Z,26.67
2022-11-29T18:26:37.297Z,26.88
2022-11-29T18:29:05.460Z,26.55
2022-11-29T18:31:34.868Z,27.10
2022-11-29T18:34:06.868Z,28.60
2022-11-29T18:36:36.512Z,26.95
2022-11-29T18:39:13.910Z,25.93
2022-11-29T18:41:45.323Z,26.63
2022-11-29T18:44:14.641Z,26.95
2022-11-29T18:46:43.500Z,25.25
2022-11-29T18:49:12.718Z,26.70
2022-11-29T18:51:41.121Z,27.50
2022-11-29T18:54:07.890Z,25.80
2022-11-29T18:56:36.531Z,26.30
2022-11-29T18:59:06.324Z,25.42
2022-11-29T19:01:35.293Z,26.05
2022-11-29T19:04:02.484Z,25.10
2022-11-29T19:06:38.979Z,25.15
2022-11-29T19:09:09.707Z,24.48
2022-11-29T19:11:36.605Z,25.58
2022-11-29T19:14:05.930Z,23.45
2022-11-29T19:16:34.431Z,24.10
2022-11-29T19:19:01.602Z,23.17
2022-11-29T19:21:31.914Z,24.35
2022-11-29T19:24:00.966Z,25.67
2022-11-29T19:26:29.786Z,24.55
2022-11-29T19:28:57.266Z,24.80
2022-11-29T19:31:25.175Z,24.77
2022-11-29T19:33:52.979Z,26.80
2022-11-29T19:36:23.991Z,25.40
2022-11-29T19:38:53.824Z,25.27
2022-11-29T19:43:53.981Z,26.08
2022-11-29T19:46:23.458Z,25.38
2022-11-29T19:48:52.583Z,27.90
2022-11-29T19:51:20.218Z,25.75
2022-11-29T19:53:47.543Z,26.13
2022-11-29T19:56:16.628Z,23.67
2022-11-29T19:58:43.901Z,25.20
2022-11-29T20:01:13.633Z,25.80
2022-11-29T20:03:41.178Z,25.65
2022-11-29T20:06:09.627Z,25.88
2022-11-29T20:08:37.491Z,25.77
2022-11-29T20:11:17.613Z,25.90
2022-11-29T20:13:46.276Z,24.98
2022-11-29T20:16:17.060Z,23.33
2022-11-29T20:18:50.365Z,23.65
2022-11-29T20:21:24.501Z,24.25
2022-11-29T20:23:56.204Z,24.35
2022-11-29T20:26:23.690Z,24.13
2022-11-29T20:28:50.929Z,25.10
2022-11-29T20:31:21.463Z,23.90
2022-11-29T20:33:49.346Z,23.58
2022-11-29T20:36:45.702Z,25.02
2022-11-29T20:39:45.409Z,23.45
2022-11-29T20:42:15.094Z,22.60
2022-11-29T20:44:54.071Z,24.10
2022-11-29T20:47:25.987Z,23.20
2022-11-29T20:49:53.291Z,23.08
2022-11-29T20:52:45.272Z,24.38
2022-11-29T20:55:12.135Z,23.52
2022-11-29T20:57:38.798Z,23.77
2022-11-29T21:00:11.333Z,21.65
2022-11-29T21:02:38.876Z,22.20
2022-11-29T21:05:06.341Z,21.95
2022-11-29T21:07:33.248Z,22.58
2022-11-29T21:10:01.619Z,22.35
2022-11-29T21:12:30.332Z,22.73
2022-11-29T21:14:57.739Z,21.67
2022-11-29T21:17:30.194Z,21.55
2022-11-29T21:20:00.328Z,21.75
2022-11-29T21:22:59.584Z,22.63
2022-11-29T21:25:52.455Z,22.73
2022-11-29T21:28:19.795Z,23.20
2022-11-29T21:30:46.824Z,21.90
2022-11-29T21:33:13.774Z,20.75
2022-11-29T21:35:40.697Z,21.65
2022-11-29T21:38:13.262Z,20.95
2022-11-29T21:40:40.033Z,20.40
2022-11-29T21:43:06.882Z,19.65
2022-11-29T21:45:33.670Z,19.38
2022-11-29T21:48:01.010Z,19.90
2022-11-29T21:50:27.720Z,19.60
2022-11-29T21:52:54.424Z,19.92
2022-11-29T21:55:21.175Z,20.85
2022-11-29T21:57:47.915Z,20.52
2022-11-29T22:00:15.165Z,20.02
2022-11-29T22:02:41.915Z,19.88
2022-11-29T22:05:09.586Z,21.52
2022-11-29T22:07:36.429Z,21.58
2022-11-29T22:10:10.028Z,20.60
2022-11-29T22:12:49.349Z,20.58
2022-11-29T22:15:23.132Z,21.42
2022-11-29T22:17:51.739Z,21.20
2022-11-29T22:20:18.607Z,22.25
2022-11-29T22:22:47.629Z,21.05
2022-11-29T22:25:15.081Z,21.23
2022-11-29T22:27:41.804Z,20.58
2022-11-29T22:30:08.869Z,21.13
2022-11-29T22:32:35.569Z,20.88
2022-11-29T22:35:02.251Z,19.85
2022-11-29T22:37:28.951Z,18.65
2022-11-29T22:39:55.646Z,19.98
2022-11-29T22:42:22.339Z,20.85
2022-11-29T22:44:49.252Z,21.63
2022-11-29T22:47:16.001Z,19.48
2022-11-29T22:49:44.443Z,22.23
2022-11-29T22:52:11.159Z,21.38
2022-11-29T22:54:37.874Z,23.63
2022-11-29T22:57:04.733Z,22.67
2022-11-29T22:59:31.422Z,23.52
2022-11-29T23:01:58.290Z,23.42
2022-11-29T23:04:25.026Z,22.65
2022-11-29T23:06:51.763Z,22.90
2022-11-29T23:09:22.115Z,23.20
2022-11-29T23:11:53.954Z,22.67
2022-11-29T23:14:22.172Z,21.80
2022-11-29T23:16:49.018Z,22.77
2022-11-29T23:19:16.240Z,22.08
2022-11-29T23:21:45.445Z,22.27
2022-11-29T23:24:12.636Z,22.23
2022-11-29T23:26:42.693Z,22.33
2022-11-29T23:29:12.864Z,22.13
2022-11-29T23:31:40.238Z,21.70
2022-11-29T23:34:07.155Z,23.02
2022-11-29T23:36:35.403Z,21.45
2022-11-29T23:39:02.208Z,20.63
2022-11-29T23:41:28.949Z,20.33
2022-11-29T23:43:55.704Z,19.75
2022-11-29T23:46:24.279Z,20.73
2022-11-29T23:48:51.556Z,21.45
2022-11-29T23:51:19.538Z,21.90
2022-11-29T23:53:50.511Z,22.02
2022-11-29T23:56:18.051Z,21.30
2022-11-29T23:58:45.599Z,22.02
